Terminal Aerodrome Forecast
Issued by NWS

Home | Current Version | Previous Version | Graphics & Text | Print | Product List | Glossary On
Versions: 1 2 3 4 5 6 7 8 9 10 11 12 13 14 15 16 17 18 19 20 21 22 23 24 25 26 27
000
FTUS45 KGGW 301700
TAFGDV
TAF
KGDV 301720Z 3018/3118 VRB06KT P6SM -SHRA SCT100 BKN250
     FM310000 30009KT P6SM VCTS BKN050CB
     FM310600 VRB06KT P6SM BKN090
      AMD LTD TO CLD VIS AND WIND=

USA.gov is the U.S. government's official web portal to all federal, state and local government web resources and services.